Time;durP1;ratioP1;P1;durP2;ratioP2;P2;SDS_P1;SDS_P2;PMS_P1;PMS_P2;Temp;Humidity;BMP_temperature;BMP_pressure;BME280_temperature;BME280_humidity;BME280_pressure;Samples;Min_cycle;Max_cycle;Signal;HPM_P1;HPM_P2
2022/09/07 00:02:10;;;;;;;2.50;1.80;;;12.30;1.00;;;;;;10525596;28;20237;-76
2022/09/07 00:07:32;;;;;;;2.33;1.73;;;12.30;1.00;;;;;;10529371;28;20556;-76
2022/09/07 00:12:53;;;;;;;2.22;1.67;;;12.30;1.00;;;;;;10519376;28;20198;-76
2022/09/07 00:18:15;;;;;;;2.45;1.70;;;12.20;1.00;;;;;;10554944;28;20294;-76
2022/09/07 00:23:38;;;;;;;2.88;1.67;;;12.20;1.00;;;;;;10587792;28;20201;-77
2022/09/07 00:29:01;;;;;;;2.05;1.85;;;12.20;1.00;;;;;;10561702;28;20459;-77
2022/09/07 00:34:22;;;;;;;3.72;2.17;;;12.20;1.00;;;;;;10561410;28;20500;-76
2022/09/07 00:39:44;;;;;;;4.50;2.20;;;12.00;1.00;;;;;;10561323;28;20221;-77
2022/09/07 00:45:19;;;;;;;4.22;2.45;;;12.10;1.00;;;;;;10546045;28;20423;-78
2022/09/07 00:50:46;;;;;;;2.95;2.53;;;12.00;1.00;;;;;;10501243;28;20196;-76
2022/09/07 00:56:08;;;;;;;3.92;2.72;;;12.00;1.00;;;;;;10504055;28;20226;-75
2022/09/07 01:01:31;;;;;;;2.83;2.25;;;12.00;1.00;;;;;;10520438;28;20283;-77
2022/09/07 01:06:54;;;;;;;3.15;2.22;;;11.90;1.00;;;;;;10554731;28;20418;-77
2022/09/07 01:12:16;;;;;;;1.90;1.70;;;11.80;1.00;;;;;;10528646;28;20205;-77
2022/09/07 01:17:46;;;;;;;4.00;1.90;;;11.80;1.00;;;;;;10574545;28;20196;-76
2022/09/07 01:23:31;;;;;;;3.20;2.00;;;11.70;1.00;;;;;;10596183;28;20226;-76
2022/09/07 01:29:02;;;;;;;4.43;2.20;;;11.80;1.00;;;;;;10582399;28;20190;-77
2022/09/07 01:34:25;;;;;;;3.75;2.00;;;11.70;1.00;;;;;;10553264;28;20190;-81
2022/09/07 01:40:05;;;;;;;3.43;2.20;;;11.70;1.00;;;;;;10568090;28;20262;-81
2022/09/07 01:45:33;;;;;;;2.10;1.73;;;11.70;1.00;;;;;;10553324;28;20187;-80
2022/09/07 01:51:01;;;;;;;3.83;2.28;;;11.60;1.00;;;;;;10567899;28;20204;-80
2022/09/07 01:56:31;;;;;;;2.97;1.80;;;11.60;1.00;;;;;;10535475;28;20201;-77
2022/09/07 02:02:15;;;;;;;3.03;1.83;;;11.50;1.00;;;;;;10535207;28;20239;-76
2022/09/07 02:08:06;;;;;;;3.13;2.00;;;11.50;1.00;;;;;;10499548;28;20185;-77
2022/09/07 02:13:59;;;;;;;2.83;1.83;;;11.40;99.90;;;;;;10566898;28;20193;-80
2022/09/07 02:19:25;;;;;;;2.40;1.93;;;11.40;26.30;;;;;;10577062;28;20237;-78
2022/09/07 02:24:51;;;;;;;2.87;1.80;;;11.40;57.70;;;;;;10567814;28;20204;-80
2022/09/07 02:30:12;;;;;;;1.90;1.60;;;11.40;27.80;;;;;;10548389;28;20201;-74
2022/09/07 02:35:34;;;;;;;3.30;2.23;;;11.40;1.00;;;;;;10566115;28;20200;-79
2022/09/07 02:40:58;;;;;;;2.77;2.10;;;11.40;1.00;;;;;;10550880;28;20511;-77
2022/09/07 02:46:44;;;;;;;2.90;1.97;;;11.30;92.70;;;;;;10550466;28;20194;-76
2022/09/07 02:52:24;;;;;;;2.50;1.90;;;11.20;99.90;;;;;;10533585;28;20276;-76
2022/09/07 02:58:02;;;;;;;2.50;1.70;;;11.00;99.90;;;;;;10508343;28;20244;-76
2022/09/07 03:03:30;;;;;;;2.00;1.80;;;11.00;99.90;;;;;;10535984;28;20224;-80
2022/09/07 03:08:57;;;;;;;2.63;1.90;;;10.90;1.00;;;;;;10521874;28;20206;-81
2022/09/07 03:14:20;;;;;;;4.43;1.73;;;;;;;;;;10507825;28;20477;-76
2022/09/07 03:19:41;;;;;;;2.37;1.83;;;10.80;47.90;;;;;;10548698;28;20217;-80
2022/09/07 03:25:04;;;;;;;4.60;2.30;;;10.70;99.90;;;;;;10524263;28;20280;-80
2022/09/07 03:30:26;;;;;;;3.23;2.00;;;10.80;1.00;;;;;;10521754;28;20485;-76
2022/09/07 03:35:57;;;;;;;3.87;1.67;;;10.80;99.90;;;;;;10521988;28;20224;-76
2022/09/07 03:41:19;;;;;;;3.37;2.10;;;10.80;99.90;;;;;;10521588;28;20232;-80
2022/09/07 03:46:40;;;;;;;3.37;2.13;;;10.70;99.90;;;;;;10513196;28;20201;-80
2022/09/07 03:52:03;;;;;;;3.57;2.27;;;10.70;32.80;;;;;;10563020;28;20197;-80
2022/09/07 03:57:24;;;;;;;2.77;2.20;;;10.60;94.00;;;;;;10559146;28;20223;-79
2022/09/07 04:02:45;;;;;;;3.10;2.60;;;10.60;1.00;;;;;;10560580;28;20225;-77
2022/09/07 04:08:06;;;;;;;3.53;2.40;;;10.70;1.00;;;;;;10520389;28;20269;-80
2022/09/07 04:13:29;;;;;;;6.17;2.37;;;10.60;1.00;;;;;;10519034;28;20206;-79
2022/09/07 04:18:53;;;;;;;4.53;2.73;;;10.60;1.00;;;;;;10573889;28;20187;-77
2022/09/07 04:24:16;;;;;;;3.95;3.00;;;10.60;1.00;;;;;;10525428;28;20471;-80
2022/09/07 04:29:38;;;;;;;31.23;13.67;;;10.70;73.90;;;;;;10504825;28;20244;-79
2022/09/07 04:34:59;;;;;;;18.90;9.63;;;10.70;1.00;;;;;;10504838;28;20201;-80
2022/09/07 04:40:21;;;;;;;15.37;6.33;;;10.80;1.00;;;;;;10519552;28;20224;-80
2022/09/07 04:45:42;;;;;;;12.60;5.23;;;10.90;1.00;;;;;;10504150;28;20193;-81
2022/09/07 04:51:08;;;;;;;9.23;4.50;;;11.00;99.90;;;;;;10561514;28;20196;-79
2022/09/07 04:56:31;;;;;;;5.65;3.20;;;11.10;1.00;;;;;;10503776;28;20206;-81
2022/09/07 05:01:52;;;;;;;7.43;4.23;;;11.20;1.00;;;;;;10518690;28;20238;-79
2022/09/07 05:07:14;;;;;;;8.63;3.77;;;11.30;1.00;;;;;;10518832;28;20595;-79
2022/09/07 05:12:35;;;;;;;5.77;4.00;;;11.40;1.00;;;;;;10517497;28;20206;-76
2022/09/07 05:17:57;;;;;;;6.90;3.67;;;11.50;99.90;;;;;;10556056;28;20197;-81
2022/09/07 05:23:19;;;;;;;10.30;5.18;;;11.60;99.90;;;;;;10588986;28;20225;-76
2022/09/07 05:28:40;;;;;;;10.70;6.28;;;11.80;1.00;;;;;;10560186;28;20197;-79
2022/09/07 05:34:02;;;;;;;15.37;7.87;;;11.90;1.00;;;;;;10542252;28;20205;-78
2022/09/07 05:39:44;;;;;;;9.37;6.00;;;11.90;1.00;;;;;;10561814;28;20431;-79
2022/09/07 05:45:06;;;;;;;10.50;4.60;;;12.00;99.90;;;;;;10508989;28;20269;-79
2022/09/07 05:50:27;;;;;;;5.47;3.45;;;12.00;99.90;;;;;;10486615;28;20245;-78
2022/09/07 05:55:49;;;;;;;3.43;2.23;;;12.20;99.90;;;;;;10473978;28;20199;-77
2022/09/07 06:01:12;;;;;;;3.00;1.97;;;12.40;99.90;;;;;;10474900;28;20538;-78
2022/09/07 06:06:39;;;;;;;3.20;1.80;;;12.50;99.90;;;;;;10476375;28;20274;-77
2022/09/07 06:12:04;;;;;;;5.30;2.15;;;12.70;95.90;;;;;;10482415;28;20203;-76
2022/09/07 06:17:25;;;;;;;4.32;1.85;;;12.80;1.00;;;;;;10493778;28;20313;-79
2022/09/07 06:22:46;;;;;;;3.08;1.70;;;13.00;1.00;;;;;;10514745;28;20220;-76
2022/09/07 06:28:07;;;;;;;7.03;2.03;;;13.10;1.00;;;;;;10482023;28;20215;-82
2022/09/07 06:33:29;;;;;;;3.65;2.03;;;13.80;1.00;;;;;;10482451;28;20200;-86
2022/09/07 06:38:50;;;;;;;3.63;1.80;;;15.40;1.00;;;;;;10479281;28;20210;-76
2022/09/07 06:44:12;;;;;;;3.85;2.15;;;16.90;99.90;;;;;;10465430;28;20227;-77
2022/09/07 16:52:00;;;;;;;2.78;2.35;;;19.90;99.90;;;;;;10595864;27;20907;-79
2022/09/07 16:57:21;;;;;;;5.18;2.72;;;19.20;99.90;;;;;;10532982;28;20206;-79
2022/09/07 17:02:42;;;;;;;5.25;2.20;;;19.00;99.90;;;;;;10512117;28;20266;-80
2022/09/07 17:08:04;;;;;;;5.25;2.88;;;18.90;99.90;;;;;;10553262;28;20217;-79
2022/09/07 17:13:25;;;;;;;6.63;3.83;;;18.60;99.90;;;;;;10553835;28;20236;-79
2022/09/07 17:18:48;;;;;;;8.35;4.95;;;18.50;99.90;;;;;;10558641;28;20247;-79
2022/09/07 17:24:30;;;;;;;8.63;4.50;;;18.40;99.90;;;;;;10541818;28;20217;-79
2022/09/07 17:29:52;;;;;;;6.70;2.97;;;18.20;99.90;;;;;;10538282;28;20521;-80
2022/09/07 17:35:13;;;;;;;5.00;2.80;;;18.00;99.90;;;;;;10524371;28;20195;-80
2022/09/07 17:40:34;;;;;;;6.60;2.38;;;17.90;99.90;;;;;;10538451;28;20198;-79
2022/09/07 17:46:01;;;;;;;7.80;2.72;;;17.70;99.90;;;;;;10537738;28;20512;-80
2022/09/07 17:51:25;;;;;;;15.75;8.60;;;17.80;1.00;;;;;;10537397;28;20551;-79
2022/09/07 17:56:47;;;;;;;69.40;47.22;;;17.60;1.00;;;;;;10537574;28;20269;-80
2022/09/07 18:02:11;;;;;;;12.20;8.73;;;17.50;1.00;;;;;;10516020;28;20492;-80
2022/09/07 18:07:33;;;;;;;118.75;69.40;;;17.40;1.00;;;;;;10537484;28;20244;-80
2022/09/07 18:12:55;;;;;;;11.70;7.72;;;17.20;1.00;;;;;;10495416;28;20202;-80
2022/09/07 18:18:19;;;;;;;4.95;3.10;;;17.00;1.00;;;;;;10542552;28;20197;-79
2022/09/07 18:23:40;;;;;;;5.93;3.03;;;16.90;1.00;;;;;;10536533;28;20192;-81
2022/09/07 18:29:02;;;;;;;5.25;3.55;;;16.80;1.00;;;;;;10508382;28;20233;-78
2022/09/07 18:34:24;;;;;;;8.25;5.93;;;16.80;1.00;;;;;;10523693;28;20183;-80
2022/09/07 18:39:47;;;;;;;6.10;3.83;;;16.70;1.00;;;;;;10522656;28;20190;-81
2022/09/07 18:45:08;;;;;;;7.25;5.88;;;16.60;1.00;;;;;;10522008;28;20189;-80
2022/09/07 18:50:53;;;;;;;14.95;6.15;;;16.60;1.00;;;;;;10473432;28;20230;-78
2022/09/07 18:56:19;;;;;;;12.02;6.40;;;16.50;1.00;;;;;;10521699;28;20192;-79
2022/09/07 19:01:41;;;;;;;10.27;5.20;;;16.40;1.00;;;;;;10521523;28;20205;-80
2022/09/07 19:07:02;;;;;;;9.05;3.72;;;16.40;1.00;;;;;;10521223;28;20256;-81
2022/09/07 19:12:24;;;;;;;11.07;4.55;;;16.30;1.00;;;;;;10519999;28;20192;-80
2022/09/07 19:17:46;;;;;;;7.35;3.45;;;16.20;1.00;;;;;;10536007;28;20189;-80
2022/09/07 19:23:07;;;;;;;9.10;4.07;;;16.20;1.00;;;;;;10521613;28;20189;-79
2022/09/07 19:28:29;;;;;;;11.65;4.70;;;16.10;1.00;;;;;;10506220;28;20221;-80
2022/09/07 19:33:58;;;;;;;7.45;3.58;;;16.10;1.00;;;;;;10491944;28;20197;-80
2022/09/07 19:39:19;;;;;;;7.22;3.50;;;15.90;14.70;;;;;;10505930;28;20200;-80
2022/09/07 19:44:41;;;;;;;5.45;3.25;;;;;;;;;;10519519;28;20360;-79
2022/09/07 19:50:02;;;;;;;5.80;3.95;;;;;;;;;;10502145;28;20245;-79
2022/09/07 19:55:24;;;;;;;6.15;3.45;;;;;;;;;;10502081;28;20488;-80
2022/09/07 20:00:46;;;;;;;4.93;3.40;;;;;;;;;;10505010;28;20200;-79
2022/09/07 20:06:08;;;;;;;8.40;3.50;;;;;;;;;;10504676;28;20247;-80
2022/09/07 20:11:31;;;;;;;7.40;3.78;;;;;;;;;;10518667;28;20264;-80
2022/09/07 20:16:53;;;;;;;6.85;3.30;;;15.60;99.90;;;;;;10527320;28;20190;-79
2022/09/07 20:22:14;;;;;;;3.58;2.25;;;15.50;1.00;;;;;;10543120;28;20194;-79
2022/09/07 20:27:36;;;;;;;4.15;2.60;;;15.40;1.00;;;;;;10518541;28;20228;-80
2022/09/07 20:32:58;;;;;;;3.13;2.03;;;;;;;;;;10518635;28;20298;-80
2022/09/07 20:38:19;;;;;;;3.53;1.95;;;15.30;1.00;;;;;;10518465;28;20559;-80
2022/09/07 20:43:41;;;;;;;3.60;2.15;;;15.20;1.00;;;;;;10489780;28;20410;-80
2022/09/07 20:49:03;;;;;;;2.55;1.67;;;15.20;1.00;;;;;;10494699;28;20254;-80
2022/09/07 20:54:25;;;;;;;3.65;1.63;;;15.10;1.00;;;;;;10514976;28;20507;-79
2022/09/07 20:59:46;;;;;;;3.13;1.60;;;15.10;1.00;;;;;;10503758;28;20241;-80
2022/09/07 21:05:17;;;;;;;3.40;1.90;;;;;;;;;;10503171;28;20269;-80
2022/09/07 21:10:39;;;;;;;3.72;1.77;;;14.90;90.50;;;;;;10502978;28;20313;-80
2022/09/07 21:16:05;;;;;;;5.18;2.13;;;;;;;;;;10532111;28;20205;-80
2022/09/07 21:21:28;;;;;;;4.80;2.00;;;;;;;;;;10546041;28;20370;-80
2022/09/07 21:26:50;;;;;;;5.45;2.40;;;;;;;;;;10447869;28;20208;-79
2022/09/07 21:32:12;;;;;;;4.43;2.65;;;;;;;;;;10504459;28;20222;-80
2022/09/07 21:37:33;;;;;;;4.07;2.17;;;;;;;;;;10467400;28;20269;-80
2022/09/07 21:42:55;;;;;;;2.50;2.03;;;;;;;;;;10483168;28;20219;-80
2022/09/07 21:48:17;;;;;;;4.28;2.50;;;;;;;;;;10492295;28;20241;-80
2022/09/07 21:53:39;;;;;;;6.35;2.65;;;;;;;;;;10523885;28;20381;-79
2022/09/07 21:59:01;;;;;;;5.43;2.70;;;;;;;;;;10496145;28;20500;-79
2022/09/07 22:04:22;;;;;;;4.13;2.22;;;;;;;;;;10524121;28;20385;-79
2022/09/07 22:09:44;;;;;;;3.13;1.75;;;;;;;;;;10467621;28;20608;-80
2022/09/07 22:15:05;;;;;;;4.35;2.33;;;;;;;;;;10482077;28;20538;-79
2022/09/07 22:20:27;;;;;;;2.47;1.70;;;;;;;;;;10577450;27;20484;-80
2022/09/07 22:25:52;;;;;;;3.78;2.30;;;;;;;;;;10523102;28;20205;-78
2022/09/07 22:31:24;;;;;;;2.47;1.73;;;;;;;;;;10522534;28;20212;-78
2022/09/07 22:36:46;;;;;;;3.75;1.35;;;;;;;;;;10508280;28;20201;-78
2022/09/07 22:42:08;;;;;;;1.90;1.35;;;;;;;;;;10522738;28;20370;-78
2022/09/07 22:47:29;;;;;;;2.53;1.25;;;;;;;;;;10521916;28;20273;-78
2022/09/07 22:52:51;;;;;;;2.28;1.45;;;;;;;;;;10494982;28;20412;-78
2022/09/07 22:58:12;;;;;;;4.95;1.58;;;;;;;;;;10522152;28;20348;-78
2022/09/07 23:03:34;;;;;;;3.90;1.50;;;;;;;;;;10507449;28;20200;-79
2022/09/07 23:08:57;;;;;;;4.68;1.58;;;;;;;;;;10493912;28;20519;-80
2022/09/07 23:14:20;;;;;;;1.83;1.50;;;;;;;;;;10493983;28;20625;-80
2022/09/07 23:19:42;;;;;;;1.48;1.27;;;;;;;;;;10544904;28;20219;-80
2022/09/07 23:25:04;;;;;;;2.25;1.88;;;;;;;;;;10465154;28;20197;-80
2022/09/07 23:30:26;;;;;;;5.00;1.98;;;;;;;;;;10479242;28;20535;-80
2022/09/07 23:35:58;;;;;;;2.95;1.85;;;;;;;;;;10464616;28;20230;-80
2022/09/07 23:41:20;;;;;;;2.22;1.67;;;;;;;;;;10478660;28;20545;-80
2022/09/07 23:46:42;;;;;;;2.58;1.75;;;;;;;;;;10475284;28;20280;-80
2022/09/07 23:52:03;;;;;;;4.15;1.50;;;;;;;;;;10507621;28;20538;-79
2022/09/07 23:57:25;;;;;;;4.63;1.50;;;;;;;;;;10504842;28;20204;-79
